Time;durP1;ratioP1;P1;durP2;ratioP2;P2;SDS_P1;SDS_P2;PMS_P1;PMS_P2;Temp;Humidity;BMP_temperature;BMP_pressure;BME280_temperature;BME280_humidity;BME280_pressure;Samples;Min_cycle;Max_cycle;Signal;HPM_P1;HPM_P2
2021/10/11 00:00:30;;;;;;;30.57;5.73;;;0.70;49.00;;;;;;4824626;28;20188;-81
2021/10/11 00:02:53;;;;;;;9.57;1.97;;;;;;;;;;4807163;28;20543;-84
2021/10/11 00:05:16;;;;;;;4.63;1.10;;;;;;;;;;4822745;28;20257;-85
2021/10/11 00:07:40;;;;;;;3.67;0.90;;;;;;;;;;4825399;28;20634;-84
2021/10/11 00:10:03;;;;;;;6.90;1.60;;;0.50;49.10;;;;;;4826696;28;20233;-82
2021/10/11 00:12:26;;;;;;;2.43;0.70;;;;;;;;;;4843189;28;20202;-85
2021/10/11 00:14:49;;;;;;;4.43;1.10;;;;;;;;;;4810206;28;20622;-85
2021/10/11 00:17:14;;;;;;;9.20;2.03;;;0.50;48.90;;;;;;4825752;28;20246;-83
2021/10/11 00:19:37;;;;;;;6.50;1.40;;;;;;;;;;4811228;28;20199;-83
2021/10/11 00:22:00;;;;;;;10.90;2.43;;;;;;;;;;4810490;28;20482;-83
2021/10/11 00:24:25;;;;;;;3.47;0.90;;;;;;;;;;4841880;28;20668;-84
2021/10/11 00:26:47;;;;;;;2.93;0.80;;;;;;;;;;4846485;28;20230;-85
2021/10/11 00:29:10;;;;;;;16.17;3.50;;;;;;;;;;4810058;28;20314;-84
2021/10/11 00:31:33;;;;;;;3.80;0.83;;;;;;;;;;4831779;28;20215;-84
2021/10/11 00:33:57;;;;;;;7.37;1.53;;;0.30;49.10;;;;;;4826336;28;20238;-84
2021/10/11 00:36:20;;;;;;;4.93;1.20;;;;;;;;;;4805367;28;20598;-86
2021/10/11 00:38:42;;;;;;;3.03;0.80;;;;;;;;;;4826298;28;20195;-85
2021/10/11 00:41:05;;;;;;;7.50;1.60;;;;;;;;;;4833499;28;20187;-80
2021/10/11 00:43:28;;;;;;;4.30;1.07;;;;;;;;;;4826314;28;20242;-84
2021/10/11 00:45:50;;;;;;;2.90;0.70;;;;;;;;;;4809906;28;20282;-85
2021/10/11 00:48:13;;;;;;;5.17;1.20;;;;;;;;;;4827687;28;20238;-83
2021/10/11 00:50:37;;;;;;;3.63;0.90;;;0.20;48.70;;;;;;4825697;28;20191;-85
2021/10/11 00:53:00;;;;;;;7.70;1.73;;;;;;;;;;4810977;28;20641;-85
2021/10/11 00:55:23;;;;;;;2.90;0.80;;;;;;;;;;4832393;28;20190;-85
2021/10/11 00:57:45;;;;;;;3.00;0.83;;;;;;;;;;4814866;28;20295;-85
2021/10/11 01:00:09;;;;;;;5.70;1.47;;;0.20;48.90;;;;;;4831182;28;20663;-85
2021/10/11 01:02:32;;;;;;;2.23;0.63;;;;;;;;;;4809619;28;20188;-84
2021/10/11 01:04:54;;;;;;;8.87;1.87;;;;;;;;;;4823698;28;20199;-85
2021/10/11 01:07:18;;;;;;;5.03;1.23;;;0.10;48.60;;;;;;4840640;28;20263;-81
2021/10/11 01:09:41;;;;;;;3.77;0.90;;;;;;;;;;4833257;28;20221;-84
2021/10/11 01:12:04;;;;;;;5.67;1.40;;;;;;;;;;4847828;28;20265;-82
2021/10/11 01:14:28;;;;;;;4.03;1.07;;;;;;;;;;4814743;28;20685;-80
2021/10/11 01:16:51;;;;;;;1.73;0.47;;;;;;;;;;4814359;28;20592;-80
2021/10/11 01:19:14;;;;;;;4.53;1.13;;;;;;;;;;4830113;28;20191;-80
2021/10/11 01:21:38;;;;;;;3.53;0.90;;;0.00;48.40;;;;;;4832953;28;20699;-81
2021/10/11 01:24:01;;;;;;;8.77;2.13;;;;;;;;;;4842216;28;20186;-81
2021/10/11 01:26:24;;;;;;;6.03;1.57;;;;;;;;;;4824435;28;20211;-79
2021/10/11 01:28:46;;;;;;;6.77;1.70;;;;;;;;;;4831545;28;20183;-80
2021/10/11 01:31:09;;;;;;;4.83;1.23;;;;;;;;;;4830306;28;20606;-80
2021/10/11 01:33:32;;;;;;;6.50;1.63;;;;;;;;;;4828622;28;20267;-80
2021/10/11 01:35:55;;;;;;;8.60;2.07;;;;;;;;;;4828422;28;20190;-80
2021/10/11 01:38:19;;;;;;;6.53;1.63;;;0.00;47.90;;;;;;4828287;28;20657;-81
2021/10/11 01:40:42;;;;;;;6.13;1.60;;;0.00;48.10;;;;;;4829453;28;20183;-82
2021/10/11 01:43:05;;;;;;;8.53;2.20;;;;;;;;;;4829134;28;20597;-79
2021/10/11 01:45:28;;;;;;;6.20;1.50;;;;;;;;;;4806301;28;20226;-80
2021/10/11 01:47:51;;;;;;;4.67;1.20;;;;;;;;;;4830175;28;20697;-79
2021/10/11 01:50:14;;;;;;;5.23;1.40;;;;;;;;;;4812100;28;20246;-79
2021/10/11 01:52:39;;;;;;;6.03;1.53;;;;;;;;;;4823964;28;20183;-79
2021/10/11 01:55:04;;;;;;;7.83;2.00;;;-0.10;48.80;;;;;;4830210;28;20186;-80
2021/10/11 01:57:27;;;;;;;6.00;1.60;;;;;;;;;;4802894;28;20263;-80
2021/10/11 01:59:49;;;;;;;5.93;1.50;;;;;;;;;;4814507;28;20207;-80
2021/10/11 02:02:12;;;;;;;6.37;1.60;;;;;;;;;;4810385;28;20649;-81
2021/10/11 02:04:35;;;;;;;5.00;1.30;;;;;;;;;;4826763;28;20184;-80
2021/10/11 02:06:58;;;;;;;8.20;2.10;;;;;;;;;;4827724;28;20709;-80
2021/10/11 02:09:21;;;;;;;6.00;1.70;;;;;;;;;;4829504;28;20192;-79
2021/10/11 02:11:44;;;;;;;6.33;1.70;;;-0.20;48.10;;;;;;4830235;28;20183;-82
2021/10/11 02:14:07;;;;;;;7.13;1.97;;;;;;;;;;4847548;28;20283;-80
2021/10/11 02:16:30;;;;;;;5.40;1.40;;;;;;;;;;4829794;28;20253;-80
2021/10/11 02:18:53;;;;;;;7.07;1.77;;;;;;;;;;4832460;28;20731;-80
2021/10/11 02:21:16;;;;;;;7.80;1.97;;;;;;;;;;4828446;28;20675;-81
2021/10/11 02:23:38;;;;;;;5.77;1.50;;;;;;;;;;4831859;28;20198;-84
2021/10/11 02:26:01;;;;;;;5.97;1.53;;;;;;;;;;4830726;28;20580;-86
2021/10/11 02:28:25;;;;;;;6.30;1.60;;;-0.30;48.40;;;;;;4835604;28;20206;-86
2021/10/11 02:30:49;;;;;;;4.20;1.20;;;;;;;;;;4828249;28;20187;-86
2021/10/11 02:33:12;;;;;;;5.40;1.43;;;;;;;;;;4826515;28;20277;-85
2021/10/11 02:35:35;;;;;;;5.40;1.40;;;;;;;;;;4834803;28;20241;-85
2021/10/11 02:37:57;;;;;;;7.73;2.07;;;;;;;;;;4828454;28;21139;-84
2021/10/11 02:40:21;;;;;;;3.00;1.00;;;;;;;;;;4850025;28;20248;-85
2021/10/11 02:42:43;;;;;;;3.63;1.13;;;;;;;;;;4810520;28;20228;-85
2021/10/11 02:45:08;;;;;;;8.47;2.30;;;-0.60;48.30;;;;;;4827836;28;20194;-81
2021/10/11 02:47:31;;;;;;;3.90;1.13;;;;;;;;;;4827445;28;20285;-86
2021/10/11 02:49:54;;;;;;;7.93;2.03;;;;;;;;;;4842306;28;20183;-85
2021/10/11 02:52:16;;;;;;;6.03;1.60;;;;;;;;;;4828656;28;20621;-86
2021/10/11 02:54:39;;;;;;;5.23;1.37;;;;;;;;;;4833260;28;20648;-85
2021/10/11 02:57:02;;;;;;;8.90;2.23;;;;;;;;;;4827150;28;20617;-83
2021/10/11 02:59:25;;;;;;;5.93;1.60;;;;;;;;;;4829839;28;20187;-84
2021/10/11 03:01:49;;;;;;;5.53;1.50;;;-0.50;48.20;;;;;;4810542;28;20188;-82
2021/10/11 03:04:12;;;;;;;2.73;0.87;;;;;;;;;;4838164;28;20615;-84
2021/10/11 03:06:35;;;;;;;2.43;0.73;;;;;;;;;;4832900;28;20183;-85
2021/10/11 03:08:57;;;;;;;5.53;1.43;;;;;;;;;;4814164;28;20613;-84
2021/10/11 03:11:20;;;;;;;3.23;0.93;;;;;;;;;;4809139;28;20249;-81
2021/10/11 03:13:43;;;;;;;2.67;0.87;;;;;;;;;;4828337;28;20237;-86
2021/10/11 03:16:05;;;;;;;5.53;1.50;;;;;;;;;;4807602;28;20658;-81
2021/10/11 03:18:29;;;;;;;3.77;1.00;;;-0.60;47.40;;;;;;4810768;28;20657;-81
2021/10/11 03:20:52;;;;;;;3.90;1.03;;;;;;;;;;4810699;28;20645;-80
2021/10/11 03:23:15;;;;;;;3.53;1.00;;;;;;;;;;4809515;28;20253;-81
2021/10/11 03:25:38;;;;;;;2.70;0.80;;;;;;;;;;4843596;28;20189;-80
2021/10/11 03:28:00;;;;;;;5.80;1.50;;;;;;;;;;4805528;28;21128;-85
2021/10/11 03:30:23;;;;;;;2.40;0.73;;;;;;;;;;4815307;28;20939;-85
2021/10/11 03:32:46;;;;;;;2.87;0.90;;;;;;;;;;4808692;28;20188;-85
2021/10/11 03:35:10;;;;;;;9.23;2.33;;;-0.70;47.60;;;;;;4808727;28;20266;-85
2021/10/11 03:37:32;;;;;;;4.20;1.27;;;;;;;;;;4809476;28;20219;-85
2021/10/11 03:39:55;;;;;;;12.27;2.33;;;;;;;;;;4808501;28;20638;-85
2021/10/11 03:42:18;;;;;;;9.57;2.00;;;;;;;;;;4808838;28;21214;-84
2021/10/11 03:44:41;;;;;;;6.97;1.57;;;;;;;;;;4807743;28;20196;-85
2021/10/11 03:47:03;;;;;;;8.67;1.97;;;;;;;;;;4806221;28;20556;-84
2021/10/11 03:49:26;;;;;;;4.43;1.17;;;;;;;;;;4802312;28;20235;-85
2021/10/11 03:51:50;;;;;;;3.60;1.00;;;-0.70;47.60;;;;;;4809372;28;20618;-86
2021/10/11 03:54:13;;;;;;;3.77;0.90;;;;;;;;;;4809931;28;20601;-85
2021/10/11 03:56:35;;;;;;;2.67;0.73;;;;;;;;;;4808127;28;20669;-85
2021/10/11 03:58:58;;;;;;;3.80;0.93;;;;;;;;;;4807842;28;20211;-85
2021/10/11 04:01:21;;;;;;;4.63;1.07;;;;;;;;;;4808084;28;20603;-85
2021/10/11 04:03:44;;;;;;;4.00;1.00;;;-0.80;47.70;;;;;;4809972;28;20617;-84
2021/10/11 04:06:07;;;;;;;6.77;1.67;;;;;;;;;;4802075;28;20648;-86
2021/10/11 04:08:34;;;;;;;1.73;0.50;;;-0.90;47.50;;;;;;4823271;28;20671;-80
2021/10/11 04:11:01;;;;;;;5.97;1.40;;;;;;;;;;4845640;28;20620;-86
2021/10/11 04:13:44;;;;;;;1.67;0.60;;;;;;;;;;4807084;28;20593;-84
2021/10/11 04:16:29;;;;;;;2.47;0.70;;;-0.90;47.50;;;;;;4827462;28;20609;-85
2021/10/11 04:19:12;;;;;;;3.80;1.00;;;;;;;;;;4824320;28;20601;-85
2021/10/11 04:21:34;;;;;;;3.33;0.87;;;;;;;;;;4829231;28;20191;-86
2021/10/11 04:23:58;;;;;;;5.40;1.43;;;-0.90;47.30;;;;;;4811918;28;20680;-87
2021/10/11 04:26:21;;;;;;;4.80;1.07;;;;;;;;;;4853101;28;20198;-87
2021/10/11 04:28:44;;;;;;;5.27;1.40;;;;;;;;;;4848929;28;20639;-86
2021/10/11 04:31:07;;;;;;;9.00;2.30;;;;;;;;;;4835275;28;20613;-86
2021/10/11 04:33:29;;;;;;;5.77;1.60;;;;;;;;;;4798485;28;20686;-85
2021/10/11 04:35:52;;;;;;;6.47;1.60;;;;;;;;;;4829284;28;20224;-86
2021/10/11 04:38:15;;;;;;;4.27;1.17;;;;;;;;;;4832319;28;20686;-87
2021/10/11 04:40:39;;;;;;;2.87;0.90;;;-0.90;47.70;;;;;;4833014;28;20601;-85
2021/10/11 04:43:02;;;;;;;4.87;1.37;;;;;;;;;;4842833;28;20758;-85
2021/10/11 04:45:28;;;;;;;2.70;0.90;;;;;;;;;;4819879;28;20951;-78
2021/10/11 04:47:51;;;;;;;3.63;1.07;;;;;;;;;;4829452;28;20746;-79
2021/10/11 04:50:14;;;;;;;3.60;0.97;;;;;;;;;;4823586;28;20620;-78
2021/10/11 04:52:36;;;;;;;2.83;0.83;;;;;;;;;;4832223;28;20605;-80
2021/10/11 04:54:59;;;;;;;3.90;1.23;;;;;;;;;;4814483;28;20629;-80
2021/10/11 04:57:23;;;;;;;6.47;1.40;;;-0.80;47.60;;;;;;4832748;28;20194;-79
2021/10/11 04:59:46;;;;;;;3.20;0.93;;;;;;;;;;4837127;28;20225;-80
2021/10/11 05:02:09;;;;;;;4.27;1.37;;;;;;;;;;4829077;28;20682;-79
2021/10/11 05:04:31;;;;;;;2.23;0.80;;;;;;;;;;4825905;28;21029;-79
2021/10/11 05:06:54;;;;;;;4.47;1.30;;;;;;;;;;4827992;28;20187;-80
2021/10/11 05:09:17;;;;;;;3.93;1.20;;;;;;;;;;4830024;28;20214;-79
2021/10/11 05:11:39;;;;;;;2.50;0.80;;;;;;;;;;4811653;28;20614;-80
2021/10/11 05:14:03;;;;;;;4.93;1.47;;;-0.70;46.60;;;;;;4820967;28;20633;-81
2021/10/11 05:16:27;;;;;;;1.43;0.57;;;;;;;;;;4832067;28;20666;-81
2021/10/11 05:18:50;;;;;;;2.07;0.70;;;;;;;;;;4831513;28;20723;-82
2021/10/11 05:21:12;;;;;;;2.43;0.83;;;;;;;;;;4832518;28;20198;-80
2021/10/11 05:23:35;;;;;;;3.57;1.17;;;;;;;;;;4828874;28;20688;-80
2021/10/11 05:25:58;;;;;;;5.77;1.60;;;;;;;;;;4843637;28;20628;-80
2021/10/11 05:28:20;;;;;;;4.30;1.33;;;;;;;;;;4851401;28;21305;-79
2021/10/11 05:30:44;;;;;;;3.23;1.03;;;-0.50;46.30;;;;;;4828883;28;20636;-81
2021/10/11 05:33:07;;;;;;;8.93;2.50;;;;;;;;;;4833525;28;20190;-80
2021/10/11 05:35:30;;;;;;;4.30;1.27;;;;;;;;;;4842408;28;20195;-81
2021/10/11 05:37:53;;;;;;;5.53;1.60;;;;;;;;;;4810063;28;20207;-79
2021/10/11 05:40:15;;;;;;;4.20;1.23;;;;;;;;;;4829652;28;20242;-82
2021/10/11 05:42:38;;;;;;;2.73;0.83;;;;;;;;;;4828265;28;20192;-81
2021/10/11 05:45:01;;;;;;;4.37;1.23;;;;;;;;;;4834596;28;21176;-81
2021/10/11 05:47:25;;;;;;;2.23;0.80;;;-0.40;47.60;;;;;;4835847;28;20631;-79
2021/10/11 05:49:48;;;;;;;3.43;1.10;;;;;;;;;;4829343;28;20805;-86
2021/10/11 05:52:10;;;;;;;2.13;0.70;;;;;;;;;;4828925;28;20598;-79
2021/10/11 05:54:33;;;;;;;2.40;0.83;;;;;;;;;;4831441;28;20195;-87
2021/10/11 05:56:56;;;;;;;5.07;1.53;;;;;;;;;;4825315;28;20192;-84
2021/10/11 05:59:18;;;;;;;3.80;1.17;;;;;;;;;;4829934;28;20245;-81
2021/10/11 06:01:41;;;;;;;3.73;1.17;;;;;;;;;;4829420;28;20183;-88
2021/10/11 06:04:05;;;;;;;7.27;1.87;;;0.10;47.80;;;;;;4805508;28;20239;-81
2021/10/11 06:06:28;;;;;;;1.97;0.80;;;;;;;;;;4830864;28;20187;-80
2021/10/11 06:08:51;;;;;;;1.63;0.60;;;;;;;;;;4828904;28;20235;-80
2021/10/11 06:11:16;;;;;;;2.20;0.83;;;0.20;48.20;;;;;;4823508;28;20617;-81
2021/10/11 06:13:39;;;;;;;4.23;1.40;;;;;;;;;;4814469;28;20275;-79
2021/10/11 06:16:01;;;;;;;5.30;1.57;;;;;;;;;;4827637;28;20608;-80
2021/10/11 06:18:25;;;;;;;2.47;0.80;;;;;;;;;;4839120;28;20198;-79
2021/10/11 06:20:48;;;;;;;3.43;1.03;;;1.00;47.30;;;;;;4834403;28;20180;-82
2021/10/11 06:23:14;;;;;;;38.67;9.47;;;1.20;40.30;;;;;;4807286;28;20254;-83
2021/10/11 06:25:37;;;;;;;3.77;1.20;;;;;;;;;;4836739;28;20195;-81
2021/10/11 06:28:00;;;;;;;6.30;1.90;;;;;;;;;;4837189;28;20714;-80
2021/10/11 06:30:22;;;;;;;7.93;2.20;;;;;;;;;;4837162;28;20306;-82
2021/10/11 06:32:45;;;;;;;3.90;1.17;;;;;;;;;;4837678;28;20186;-82
2021/10/11 06:35:08;;;;;;;7.57;2.10;;;2.00;42.90;;;;;;4820059;28;20249;-81
2021/10/11 06:37:32;;;;;;;2.90;0.97;;;2.10;43.20;;;;;;4837137;28;20190;-82
2021/10/11 06:39:55;;;;;;;6.90;1.73;;;;;;;;;;4820145;28;20230;-85
2021/10/11 06:42:18;;;;;;;4.70;1.27;;;;;;;;;;4819503;28;20322;-85
2021/10/11 06:44:41;;;;;;;3.47;1.03;;;;;;;;;;4838263;28;20233;-79
2021/10/11 06:47:04;;;;;;;6.53;1.70;;;;;;;;;;4834705;28;20199;-80
2021/10/11 06:49:26;;;;;;;4.50;1.20;;;;;;;;;;4831111;28;20215;-83
2021/10/11 06:51:49;;;;;;;5.07;1.50;;;;;;;;;;4834378;28;20199;-82
2021/10/11 06:54:13;;;;;;;5.80;1.50;;;3.00;43.30;;;;;;4850503;28;20271;-81
2021/10/11 06:56:35;;;;;;;4.80;1.30;;;;;;;;;;4831719;28;20230;-80
2021/10/11 06:58:58;;;;;;;10.47;2.63;;;;;;;;;;4826553;28;20194;-80
2021/10/11 07:01:21;;;;;;;6.23;1.63;;;;;;;;;;4824055;28;20192;-79
2021/10/11 07:03:44;;;;;;;4.37;1.20;;;;;;;;;;4836274;28;20183;-78
2021/10/11 07:06:13;;;;;;;5.43;1.40;;;;;;;;;;4827208;28;20672;-79
2021/10/11 07:08:36;;;;;;;5.53;1.50;;;;;;;;;;4830050;28;20223;-79
2021/10/11 07:10:59;;;;;;;6.80;1.67;;;4.00;44.20;;;;;;4832452;28;20628;-79
2021/10/11 07:13:23;;;;;;;5.10;1.40;;;4.10;44.20;;;;;;4820793;28;20248;-81
2021/10/11 07:15:46;;;;;;;3.63;1.00;;;;;;;;;;4832792;28;20249;-84
2021/10/11 07:18:09;;;;;;;55.60;12.40;;;;;;;;;;4814426;28;20199;-81
2021/10/11 07:20:32;;;;;;;7.17;1.80;;;;;;;;;;4831334;28;20728;-80
2021/10/11 07:22:54;;;;;;;5.30;1.30;;;4.40;44.00;;;;;;4837047;28;20237;-81
2021/10/11 07:28:23;;;;;;;7.90;2.00;;;5.00;44.90;;;;;;4835718;28;20191;-79
2021/10/11 07:31:11;;;;;;;11.80;2.50;;;5.30;45.10;;;;;;4819898;28;20568;-84
2021/10/11 07:33:42;;;;;;;7.67;1.43;;;4.90;45.00;;;;;;4840393;28;20198;-82
2021/10/11 07:36:26;;;;;;;10.30;2.37;;;6.60;45.90;;;;;;4852219;28;20270;-84
2021/10/11 07:39:21;;;;;;;6.53;1.60;;;7.50;46.80;;;;;;4825765;28;20183;-81
2021/10/11 07:42:10;;;;;;;12.27;2.77;;;8.10;47.90;;;;;;4812023;28;20188;-81
2021/10/11 07:44:45;;;;;;;11.30;2.67;;;8.40;48.20;;;;;;4832368;28;20202;-84
2021/10/11 07:47:41;;;;;;;8.70;2.13;;;8.70;48.50;;;;;;4802009;28;20192;-83
2021/10/11 07:50:05;;;;;;;9.83;2.33;;;8.80;48.90;;;;;;4826017;28;20216;-80
2021/10/11 07:52:28;;;;;;;6.40;1.63;;;;;;;;;;4836678;28;20183;-80
2021/10/11 07:54:52;;;;;;;6.60;1.57;;;9.10;49.40;;;;;;4826382;28;20192;-79
2021/10/11 07:57:15;;;;;;;5.87;1.50;;;;;;;;;;4835522;28;20253;-81
2021/10/11 07:59:39;;;;;;;7.70;1.80;;;9.50;49.80;;;;;;4833704;28;20610;-81
2021/10/11 08:02:01;;;;;;;8.07;1.90;;;;;;;;;;4834596;28;20589;-81
2021/10/11 08:04:24;;;;;;;4.47;1.10;;;;;;;;;;4850585;28;20201;-82
2021/10/11 08:06:47;;;;;;;5.27;1.30;;;;;;;;;;4839796;28;20186;-83
2021/10/11 08:09:10;;;;;;;9.53;2.20;;;;;;;;;;4847945;28;20282;-80
2021/10/11 08:11:33;;;;;;;7.83;1.80;;;;;;;;;;4833426;28;20266;-81
2021/10/11 08:13:55;;;;;;;9.03;2.03;;;;;;;;;;4813630;28;20725;-80
2021/10/11 08:16:19;;;;;;;6.30;1.57;;;9.40;50.10;;;;;;4807483;28;20259;-80
2021/10/11 08:18:42;;;;;;;9.03;2.07;;;;;;;;;;4832088;28;20715;-80
2021/10/11 08:21:06;;;;;;;7.50;1.73;;;9.60;50.20;;;;;;4853736;28;20243;-82
2021/10/11 08:23:29;;;;;;;9.30;2.03;;;;;;;;;;4822110;28;20253;-80
2021/10/11 08:25:51;;;;;;;8.13;1.73;;;;;;;;;;4837524;28;20202;-80
2021/10/11 08:28:14;;;;;;;8.10;1.80;;;;;;;;;;4839348;28;20190;-80
2021/10/11 08:30:38;;;;;;;7.70;1.73;;;9.80;50.60;;;;;;4838553;28;20652;-78
2021/10/11 08:33:02;;;;;;;9.20;2.03;;;9.90;50.90;;;;;;4839365;28;20199;-80
2021/10/11 08:35:24;;;;;;;6.47;1.50;;;;;;;;;;4837877;28;20240;-83
2021/10/11 08:37:47;;;;;;;10.63;2.27;;;;;;;;;;4847004;28;20225;-84
2021/10/11 08:40:10;;;;;;;20.00;3.93;;;10.30;50.80;;;;;;4835484;28;20234;-81
2021/10/11 08:42:33;;;;;;;7.33;1.63;;;;;;;;;;4822123;28;20604;-83
2021/10/11 08:44:56;;;;;;;17.43;3.20;;;;;;;;;;4830858;28;20191;-79
2021/10/11 08:47:19;;;;;;;11.43;2.10;;;10.60;50.40;;;;;;4844194;28;20249;-78
2021/10/11 08:49:46;;;;;;;7.57;1.50;;;11.40;51.70;;;;;;4840518;28;20740;-79
2021/10/11 08:52:09;;;;;;;28.40;4.63;;;11.70;51.00;;;;;;4818288;28;20210;-80
2021/10/11 08:54:32;;;;;;;16.97;2.90;;;;;;;;;;4831543;28;20241;-81
2021/10/11 08:56:54;;;;;;;5.73;1.27;;;;;;;;;;4827610;28;20222;-81
2021/10/11 08:59:28;;;;;;;7.40;1.50;;;11.80;51.50;;;;;;4828669;28;20187;-81
2021/10/11 09:01:51;;;;;;;7.97;1.50;;;;;;;;;;4828726;28;20182;-80
2021/10/11 09:04:18;;;;;;;7.93;1.60;;;11.40;52.10;;;;;;4830352;28;20901;-81
2021/10/11 09:07:01;;;;;;;5.07;1.10;;;11.60;52.50;;;;;;4838412;28;20191;-80
2021/10/11 09:09:24;;;;;;;9.63;1.77;;;;;;;;;;4835772;28;20600;-81
2021/10/11 09:11:47;;;;;;;5.30;1.10;;;;;;;;;;4827101;28;20246;-78
2021/10/11 09:14:10;;;;;;;14.17;2.70;;;12.90;52.80;;;;;;4827767;28;20257;-81
2021/10/11 09:16:34;;;;;;;4.73;1.00;;;;;;;;;;4823123;28;20290;-79
2021/10/11 09:18:59;;;;;;;7.43;1.50;;;;;;;;;;4815639;28;20195;-87
2021/10/11 09:21:30;;;;;;;9.47;1.80;;;13.00;54.30;;;;;;4821139;28;20609;-79
2021/10/11 09:24:07;;;;;;;8.00;1.63;;;13.20;54.40;;;;;;4816997;28;20196;-82
2021/10/11 09:26:42;;;;;;;7.77;1.43;;;13.20;54.70;;;;;;4809376;28;20277;-79
2021/10/11 09:29:04;;;;;;;12.43;2.37;;;;;;;;;;4810382;28;20239;-77
2021/10/11 09:31:37;;;;;;;7.23;1.53;;;13.60;54.80;;;;;;4809715;28;20817;-78
2021/10/11 09:34:01;;;;;;;11.67;2.23;;;13.90;54.80;;;;;;4816628;28;20277;-79
2021/10/11 09:36:25;;;;;;;12.20;2.23;;;;;;;;;;4834127;28;20195;-79
2021/10/11 09:38:58;;;;;;;11.40;2.03;;;14.50;55.60;;;;;;4828913;28;20195;-78
2021/10/11 09:41:22;;;;;;;13.17;2.40;;;14.60;55.70;;;;;;4827173;28;20206;-79
2021/10/11 09:43:44;;;;;;;9.80;1.87;;;;;;;;;;4830013;28;20253;-80
2021/10/11 09:46:12;;;;;;;13.40;2.33;;;14.70;55.60;;;;;;4827927;28;20199;-80
2021/10/11 09:48:35;;;;;;;7.97;1.47;;;;;;;;;;4837078;28;20247;-81
2021/10/11 09:50:57;;;;;;;11.83;2.10;;;;;;;;;;4817789;28;20342;-83
2021/10/11 09:53:20;;;;;;;5.80;1.10;;;;;;;;;;4845288;28;20229;-82
2021/10/11 09:55:44;;;;;;;9.93;1.87;;;;;;;;;;4829688;28;20199;-80
2021/10/11 09:58:10;;;;;;;10.47;1.90;;;14.90;56.10;;;;;;4821704;28;20241;-83
2021/10/11 10:00:32;;;;;;;60.00;9.53;;;;;;;;;;4824665;28;20187;-81
2021/10/11 10:02:56;;;;;;;11.23;2.07;;;15.30;56.10;;;;;;4819864;28;20230;-80
2021/10/11 10:05:24;;;;;;;9.20;1.70;;;15.30;56.60;;;;;;4824493;28;20186;-77
2021/10/11 10:07:49;;;;;;;9.07;1.60;;;15.50;56.70;;;;;;4806550;28;20248;-78
2021/10/11 10:10:13;;;;;;;36.17;5.60;;;15.70;56.90;;;;;;4833920;28;20214;-80
2021/10/11 10:12:44;;;;;;;7.27;1.33;;;16.10;57.00;;;;;;4814238;28;20205;-80
2021/10/11 10:15:09;;;;;;;13.27;2.17;;;16.40;57.20;;;;;;4825687;28;20250;-80
2021/10/11 10:17:35;;;;;;;14.37;2.20;;;16.80;57.30;;;;;;4827437;28;20259;-82
2021/10/11 10:20:10;;;;;;;12.37;1.97;;;17.30;57.60;;;;;;4811176;28;20203;-86
2021/10/11 10:22:33;;;;;;;8.47;1.30;;;;;;;;;;4830697;28;20201;-86
2021/10/11 10:25:05;;;;;;;14.17;2.03;;;18.90;58.80;;;;;;4836340;28;20194;-82
2021/10/11 10:27:36;;;;;;;11.40;1.70;;;19.80;59.30;;;;;;4828249;28;20183;-79
2021/10/11 10:29:59;;;;;;;14.47;2.00;;;;;;;;;;4808285;28;20277;-81
2021/10/11 10:32:23;;;;;;;13.03;1.80;;;20.60;60.00;;;;;;4824189;28;20210;-80
2021/10/11 10:34:46;;;;;;;24.73;3.17;;;21.80;60.50;;;;;;4813080;28;20302;-80
2021/10/11 10:37:10;;;;;;;24.77;3.03;;;23.60;61.50;;;;;;4818156;28;20212;-81
2021/10/11 10:39:40;;;;;;;17.37;2.13;;;25.30;47.40;;;;;;4816293;28;20192;-81
2021/10/11 10:42:03;;;;;;;22.93;2.73;;;;;;;;;;4832405;28;20183;-80
2021/10/11 10:44:27;;;;;;;19.53;2.30;;;28.60;48.90;;;;;;4842651;28;20182;-83
2021/10/11 10:46:55;;;;;;;24.57;2.90;;;30.10;49.50;;;;;;4824837;28;20201;-84
2021/10/11 10:49:28;;;;;;;31.50;3.50;;;31.30;50.00;;;;;;4819423;28;20225;-79
2021/10/11 10:51:51;;;;;;;169.17;153.10;;;;;;;;;;4845193;28;20211;-84
2021/10/11 10:54:14;;;;;;;101.43;93.20;;;;;;;;;;4809215;28;20270;-81
2021/10/11 10:56:37;;;;;;;292.00;247.87;;;;;;;;;;4809909;28;20260;-81
2021/10/11 10:59:04;;;;;;;473.87;262.27;;;29.80;49.70;;;;;;4818489;28;20198;-81
2021/10/11 11:01:28;;;;;;;331.77;231.43;;;28.90;49.40;;;;;;4839258;28;20249;-79
2021/10/11 11:03:51;;;;;;;279.57;221.30;;;;;;;;;;4830771;28;20189;-80
2021/10/11 11:06:15;;;;;;;232.03;208.30;;;28.30;49.20;;;;;;4834955;28;20430;-81
2021/10/11 11:08:38;;;;;;;171.67;157.87;;;;;;;;;;4849948;28;20232;-79
2021/10/11 11:11:03;;;;;;;55.17;49.17;;;27.30;48.90;;;;;;4810030;28;20330;-83
2021/10/11 11:13:25;;;;;;;25.40;14.47;;;;;;;;;;4824015;28;20179;-83
2021/10/11 11:15:49;;;;;;;21.17;9.87;;;27.50;48.90;;;;;;4846240;28;20193;-85
2021/10/11 11:18:16;;;;;;;48.40;14.60;;;28.70;49.30;;;;;;4825879;28;20654;-81
2021/10/11 11:20:40;;;;;;;22.57;7.07;;;30.30;49.90;;;;;;4828719;28;20206;-80
2021/10/11 11:23:06;;;;;;;24.10;6.27;;;31.40;50.20;;;;;;4821909;28;20201;-86
2021/10/11 11:25:32;;;;;;;22.60;7.50;;;32.40;50.60;;;;;;4803757;28;20263;-83
2021/10/11 11:27:56;;;;;;;19.43;7.47;;;33.50;50.90;;;;;;4827041;28;20189;-84
2021/10/11 11:30:20;;;;;;;51.80;14.93;;;34.50;51.40;;;;;;4812978;28;20203;-85
2021/10/11 11:32:46;;;;;;;42.80;33.60;;;34.70;51.50;;;;;;4832409;28;20225;-82
2021/10/11 11:35:17;;;;;;;34.40;25.20;;;35.20;51.60;;;;;;4800385;28;20195;-85
2021/10/11 11:37:46;;;;;;;23.40;17.70;;;35.90;51.90;;;;;;4807404;28;20622;-83
2021/10/11 11:40:11;;;;;;;78.30;23.17;;;35.10;51.70;;;;;;4835961;28;20198;-82
2021/10/11 11:42:37;;;;;;;34.53;17.77;;;35.70;51.80;;;;;;4802777;28;20197;-87
2021/10/11 11:45:09;;;;;;;31.07;18.10;;;;;;;;;;4834589;28;20202;-84
2021/10/11 11:47:32;;;;;;;26.83;10.43;;;;;;;;;;4837085;28;20205;-87
2021/10/11 11:49:54;;;;;;;25.87;11.50;;;;;;;;;;4817455;28;20195;-81
2021/10/11 11:52:17;;;;;;;23.17;9.33;;;;;;;;;;4829269;28;20682;-80
2021/10/11 11:54:41;;;;;;;56.77;13.47;;;38.10;52.60;;;;;;4808174;28;20214;-80
2021/10/11 11:57:06;;;;;;;31.90;7.93;;;38.30;52.70;;;;;;4842201;28;20227;-86
2021/10/11 11:59:34;;;;;;;22.87;7.70;;;38.40;52.70;;;;;;4824670;28;20205;-82
2021/10/11 12:02:00;;;;;;;42.27;11.03;;;38.60;52.80;;;;;;4820958;28;20202;-81
2021/10/11 12:04:23;;;;;;;23.13;6.80;;;;;;;;;;4809223;28;20260;-81
2021/10/11 12:06:46;;;;;;;14.90;3.63;;;;;;;;;;4830897;28;20194;-89
2021/10/11 12:09:09;;;;;;;40.63;6.53;;;;;;;;;;4818372;28;20226;-86
2021/10/11 12:11:32;;;;;;;30.45;5.38;;;;;;;;;;4823537;28;20213;-85
2021/10/11 12:13:59;;;;;;;13.10;2.63;;;40.10;53.40;;;;;;4807449;28;20211;-83
2021/10/11 12:16:24;;;;;;;24.50;4.03;;;;;;;;;;4841495;28;20183;-80
2021/10/11 12:18:49;;;;;;;27.85;4.45;;;40.80;53.60;;;;;;4807043;28;20682;-81
2021/10/11 12:21:22;;;;;;;39.13;5.45;;;40.70;53.60;;;;;;4823685;28;20206;-83
2021/10/11 12:23:45;;;;;;;29.63;4.72;;;40.90;53.70;;;;;;4823920;28;20711;-77
2021/10/11 12:26:08;;;;;;;39.63;5.80;;;;;;;;;;4823786;28;20554;-83
2021/10/11 12:28:30;;;;;;;20.85;2.95;;;;;;;;;;4827418;28;20653;-86
2021/10/11 12:31:01;;;;;;;19.23;2.70;;;41.70;53.90;;;;;;4847599;28;20297;-78
2021/10/11 12:33:24;;;;;;;23.67;3.28;;;;;;;;;;4833069;28;20191;-80
2021/10/11 12:35:48;;;;;;;18.35;2.50;;;41.90;54.00;;;;;;4824716;28;20656;-80
2021/10/11 12:38:12;;;;;;;36.53;4.68;;;41.80;54.00;;;;;;4825899;28;20195;-84
2021/10/11 12:40:34;;;;;;;14.02;1.77;;;;;;;;;;4826707;28;20262;-81
2021/10/11 12:42:57;;;;;;;25.65;3.05;;;;;;;;;;4818315;28;20203;-81
2021/10/11 12:45:22;;;;;;;31.67;3.83;;;;;;;;;;4832704;28;20543;-83
2021/10/11 12:47:46;;;;;;;15.00;2.05;;;41.70;54.00;;;;;;4832978;28;20256;-81
2021/10/11 12:50:10;;;;;;;60.25;7.18;;;41.80;54.00;;;;;;4826897;28;20195;-79
2021/10/11 12:52:34;;;;;;;30.50;4.00;;;41.70;54.00;;;;;;4813619;28;20353;-82
2021/10/11 12:55:06;;;;;;;24.45;3.10;;;41.30;53.90;;;;;;4824695;28;20179;-82
2021/10/11 12:57:31;;;;;;;21.42;2.90;;;40.60;53.70;;;;;;4829577;28;20186;-83
2021/10/11 12:59:54;;;;;;;18.27;2.55;;;39.40;53.30;;;;;;4841523;28;20245;-82
2021/10/11 13:02:19;;;;;;;16.00;4.38;;;37.80;52.70;;;;;;4829475;28;20248;-80
2021/10/11 13:04:43;;;;;;;37.85;5.43;;;36.00;52.10;;;;;;4839835;28;20197;-82
2021/10/11 13:07:06;;;;;;;41.97;4.95;;;;;;;;;;4821047;28;20203;-83
2021/10/11 13:09:29;;;;;;;18.73;2.22;;;;;;;;;;4818595;28;20234;-81
2021/10/11 13:11:51;;;;;;;19.13;2.27;;;;;;;;;;4819837;28;20209;-83
2021/10/11 13:14:14;;;;;;;11.80;1.43;;;;;;;;;;4819591;28;20928;-83
2021/10/11 13:16:37;;;;;;;16.50;2.03;;;;;;;;;;4834072;28;20641;-84
2021/10/11 13:19:00;;;;;;;36.60;4.07;;;;;;;;;;4813267;28;20246;-81
2021/10/11 13:21:24;;;;;;;18.80;2.17;;;24.60;63.00;;;;;;4814415;28;20190;-83
2021/10/11 13:23:47;;;;;;;21.03;2.43;;;;;;;;;;4827686;28;20192;-84
2021/10/11 13:26:09;;;;;;;33.90;3.60;;;;;;;;;;4825362;28;20745;-86
2021/10/11 13:28:33;;;;;;;21.20;2.37;;;;;;;;;;4815567;28;20662;-83
2021/10/11 13:39:49;;;;;;;47.17;4.93;;;19.90;60.80;;;;;;4765614;28;20189;-84
2021/10/11 14:27:54;;;;;;;14.80;1.90;;;15.30;58.30;;;;;;4818541;28;20199;-82
2021/10/11 14:30:24;;;;;;;12.97;1.83;;;;;;;;;;4819033;28;20942;-80
2021/10/11 15:58:40;;;;;;;15.20;2.30;;;;;;;;;;4835728;28;20604;-83